Time;durP1;ratioP1;P1;durP2;ratioP2;P2;SDS_P1;SDS_P2;PMS_P1;PMS_P2;Temp;Humidity;BMP_temperature;BMP_pressure;BME280_temperature;BME280_humidity;BME280_pressure;Samples;Min_cycle;Max_cycle;Signal;HPM_P1;HPM_P2
2021/12/16 00:01:57;;;;;;;41.28;7.13;;;;;;;;;;4969934;28;20034;-88
2021/12/16 00:07:20;;;;;;;38.08;8.25;;;;;;;;;;5031447;28;20032;-88
2021/12/16 00:34:03;;;;;;;32.42;7.30;;;;;;;;;;5030763;28;20048;-88
2021/12/16 00:36:30;;;;;;;29.88;6.40;;;;;;;;;;5030719;28;20392;-88
2021/12/16 00:38:56;;;;;;;35.38;6.60;;;;;;;;;;5030278;28;20029;-88
2021/12/16 00:41:21;;;;;;;26.80;6.82;;;;;;;;;;5030159;28;20013;-88
2021/12/16 00:44:04;;;;;;;33.28;6.32;;;;;;;;;;5012154;28;20044;-88
2021/12/16 00:47:26;;;;;;;25.90;6.43;;;;;;;;;;5012494;28;20029;-88
2021/12/16 00:54:38;;;;;;;41.45;5.97;;;;;;;;;;5029784;28;20119;-88
2021/12/16 00:57:09;;;;;;;42.88;7.22;;;;;;;;;;5028665;28;20017;-88
2021/12/16 00:59:38;;;;;;;31.20;7.47;;;;;;;;;;5030080;28;20095;-88
2021/12/16 01:05:20;;;;;;;29.73;5.50;;;;;;;;;;5029954;28;20048;-88
2021/12/16 01:35:14;;;;;;;21.65;5.00;;;;;;;;;;5029696;28;20539;-88
2021/12/16 01:50:23;;;;;;;24.63;4.85;;;;;;;;;;5033764;28;20021;-88
2021/12/16 01:55:25;;;;;;;23.10;4.88;;;;;;;;;;5033844;28;20447;-88
2021/12/16 01:57:55;;;;;;;18.02;4.00;;;;;;;;;;5033630;28;20027;-88
2021/12/16 02:00:51;;;;;;;18.45;3.80;;;;;;;;;;5031630;28;20037;-88
2021/12/16 02:03:24;;;;;;;24.60;4.75;;;;;;;;;;5031693;28;20028;-88
2021/12/16 02:08:25;;;;;;;18.58;4.35;;;;;;;;;;5033190;28;20017;-89
2021/12/16 02:11:02;;;;;;;21.42;5.28;;;;;;;;;;5033255;28;20384;-88
2021/12/16 02:30:21;;;;;;;23.85;5.03;;;;;;;;;;5033112;28;20507;-88
2021/12/16 02:33:08;;;;;;;15.38;5.38;;;;;;;;;;5032635;28;20590;-88
2021/12/16 02:35:41;;;;;;;23.05;4.70;;;;;;;;;;5032722;28;20033;-88
2021/12/16 02:38:07;;;;;;;22.02;4.68;;;;;;;;;;5032597;28;20473;-88
2021/12/16 02:40:33;;;;;;;21.58;5.32;;;;;;;;;;5032740;28;20022;-88
2021/12/16 02:43:07;;;;;;;23.35;5.32;;;;;;;;;;5032543;28;20021;-88
2021/12/16 02:48:35;;;;;;;22.27;4.20;;;;;;;;;;5032822;28;20076;-88
2021/12/16 02:51:04;;;;;;;20.80;4.90;;;;;;;;;;5032419;28;20026;-88
2021/12/16 02:53:30;;;;;;;19.02;4.70;;;;;;;;;;5032212;28;20523;-89
2021/12/16 02:55:55;;;;;;;20.33;4.00;;;;;;;;;;5032592;28;20049;-88
2021/12/16 02:58:21;;;;;;;20.23;4.50;;;;;;;;;;5030436;28;20013;-88
2021/12/16 03:00:49;;;;;;;21.17;4.00;;;;;;;;;;5032156;28;20469;-88
2021/12/16 03:03:15;;;;;;;18.80;5.55;;;;;;;;;;5030673;28;20120;-88
2021/12/16 03:05:40;;;;;;;18.88;4.25;;;;;;;;;;5032203;28;20547;-88
2021/12/16 03:08:06;;;;;;;18.77;5.30;;;;;;;;;;5032066;28;20057;-88
2021/12/16 03:13:26;;;;;;;20.90;4.85;;;;;;;;;;4991013;28;20068;-88
2021/12/16 03:16:07;;;;;;;22.77;5.75;;;;;;;;;;5031174;28;20025;-88
2021/12/16 03:21:14;;;;;;;19.90;5.38;;;;;;;;;;5031735;28;20076;-88
2021/12/16 03:26:52;;;;;;;26.23;5.55;;;;;;;;;;5032390;28;20428;-88
2021/12/16 03:31:57;;;;;;;26.83;7.13;;;;;;;;;;5031517;28;20640;-88
2021/12/16 03:37:18;;;;;;;27.42;7.78;;;;;;;;;;5032115;28;20042;-88
2021/12/16 03:39:43;;;;;;;23.48;6.05;;;;;;;;;;5030653;28;20500;-88
2021/12/16 03:42:09;;;;;;;28.17;7.00;;;;;;;;;;5031941;28;20025;-89
2021/12/16 03:44:52;;;;;;;22.65;6.25;;;;;;;;;;5032401;28;20040;-88
2021/12/16 03:47:18;;;;;;;23.08;5.50;;;;;;;;;;5031953;28;20063;-88
2021/12/16 03:49:43;;;;;;;13.55;4.97;;;;;;;;;;5014163;28;20111;-89
2021/12/16 03:52:09;;;;;;;19.20;5.45;;;;;;;;;;5031595;28;20481;-88
2021/12/16 03:54:38;;;;;;;36.78;7.82;;;;;;;;;;5029702;28;20049;-88
2021/12/16 03:57:06;;;;;;;20.25;5.28;;;;;;;;;;5031137;28;20022;-88
2021/12/16 03:59:33;;;;;;;25.35;6.60;;;;;;;;;;5030928;28;20100;-88
2021/12/16 04:02:00;;;;;;;31.40;6.38;;;;;;;;;;5029942;28;20787;-89
2021/12/16 04:04:25;;;;;;;18.38;5.57;;;;;;;;;;5031048;28;20760;-89
2021/12/16 04:06:51;;;;;;;25.35;6.03;;;;;;;;;;5029745;28;20032;-89
2021/12/16 04:09:16;;;;;;;25.23;6.22;;;;;;;;;;5030699;28;20400;-88
2021/12/16 04:11:44;;;;;;;30.55;6.10;;;;;;;;;;5031442;28;20032;-88
2021/12/16 04:14:10;;;;;;;23.58;5.05;;;;;;;;;;5029499;28;20095;-88
2021/12/16 04:16:41;;;;;;;21.55;5.47;;;;;;;;;;5029230;28;20392;-88
2021/12/16 04:19:09;;;;;;;24.45;4.90;;;;;;;;;;5029226;28;20087;-88
2021/12/16 04:21:37;;;;;;;20.25;4.75;;;;;;;;;;5029259;28;20428;-88
2021/12/16 04:24:02;;;;;;;24.55;6.20;;;;;;;;;;5029584;28;20046;-88
2021/12/16 04:26:28;;;;;;;20.15;5.25;;;;;;;;;;5030292;28;20025;-88
2021/12/16 04:28:53;;;;;;;22.85;5.25;;;;;;;;;;5029154;28;20048;-88
2021/12/16 04:31:18;;;;;;;19.73;6.03;;;;;;;;;;5030320;28;20025;-88
2021/12/16 04:33:44;;;;;;;29.23;6.55;;;;;;;;;;5030089;28;20108;-88
2021/12/16 04:36:10;;;;;;;30.10;5.72;;;;;;;;;;5030312;28;20464;-88
2021/12/16 04:38:36;;;;;;;24.67;5.85;;;;;;;;;;5028747;28;20048;-88
2021/12/16 04:41:04;;;;;;;22.17;6.32;;;;;;;;;;5028936;28;20025;-88
2021/12/16 04:43:38;;;;;;;29.83;5.88;;;;;;;;;;5030279;28;20032;-88
2021/12/16 04:46:04;;;;;;;28.98;7.68;;;;;;;;;;5030299;28;20100;-88
2021/12/16 04:48:29;;;;;;;32.90;7.25;;;;;;;;;;5011972;28;20108;-88
2021/12/16 04:50:55;;;;;;;28.47;7.17;;;;;;;;;;5030016;28;20108;-88
2021/12/16 04:53:20;;;;;;;37.65;7.22;;;;;;;;;;5030035;28;20779;-88
2021/12/16 04:55:45;;;;;;;25.45;6.97;;;;;;;;;;5028608;28;20029;-88
2021/12/16 04:58:10;;;;;;;31.85;7.93;;;;;;;;;;5028880;28;20098;-88
2021/12/16 05:00:36;;;;;;;27.43;7.57;;;;;;;;;;5030088;28;20064;-88
2021/12/16 05:03:01;;;;;;;34.67;8.05;;;;;;;;;;5028476;28;20275;-88
2021/12/16 05:05:26;;;;;;;31.40;7.72;;;;;;;;;;5028459;28;20045;-88
2021/12/16 05:07:52;;;;;;;31.92;7.45;;;;;;;;;;5028523;28;20506;-88
2021/12/16 05:10:18;;;;;;;41.58;8.55;;;;;;;;;;5030010;28;20021;-88
2021/12/16 05:12:50;;;;;;;36.05;6.97;;;;;;;;;;5029900;28;20361;-88
2021/12/16 05:15:18;;;;;;;39.38;7.47;;;;;;;;;;5011804;28;20017;-88
2021/12/16 05:17:47;;;;;;;32.67;7.35;;;;;;;;;;5029660;28;20040;-88
2021/12/16 05:20:15;;;;;;;47.00;7.55;;;;;;;;;;5029648;28;20051;-88
2021/12/16 05:28:06;;;;;;;39.22;7.38;;;;;;;;;;5029721;28;20422;-87
2021/12/16 05:30:31;;;;;;;43.75;8.27;;;;;;;;;;5029794;28;20085;-88
2021/12/16 05:32:57;;;;;;;42.33;7.63;;;;;;;;;;5029765;28;20131;-88
2021/12/16 05:35:23;;;;;;;59.53;9.15;;;;;;;;;;5029939;28;20033;-87
2021/12/16 05:37:49;;;;;;;44.80;8.25;;;;;;;;;;5028308;28;20052;-87
2021/12/16 05:40:16;;;;;;;44.42;8.80;;;;;;;;;;5028314;28;20029;-87
2021/12/16 05:42:43;;;;;;;47.85;9.65;;;;;;;;;;5029434;28;20024;-88
2021/12/16 05:45:08;;;;;;;44.40;8.10;;;;;;;;;;5028018;28;20055;-88
2021/12/16 05:47:34;;;;;;;55.78;9.65;;;;;;;;;;5011615;28;20022;-88
2021/12/16 05:49:59;;;;;;;38.97;8.55;;;;;;;;;;5029862;28;20707;-88
2021/12/16 05:52:24;;;;;;;41.83;8.73;;;;;;;;;;5029387;28;20024;-88
2021/12/16 05:54:49;;;;;;;39.00;8.00;;;;;;;;;;5029463;28;20126;-88
2021/12/16 05:57:15;;;;;;;53.67;10.00;;;;;;;;;;5029309;28;20024;-88
2021/12/16 05:59:40;;;;;;;49.75;9.88;;;;;;;;;;5011531;28;20632;-87
2021/12/16 06:02:05;;;;;;;53.25;9.38;;;;;;;;;;5029332;28;20029;-87
2021/12/16 06:04:33;;;;;;;48.72;7.82;;;;;;;;;;5027681;28;20029;-88
2021/12/16 06:06:58;;;;;;;44.78;8.52;;;;;;;;;;5028100;28;20580;-88
2021/12/16 06:09:23;;;;;;;61.33;8.52;;;;;;;;;;5029935;28;20026;-87
2021/12/16 06:11:51;;;;;;;64.22;9.48;;;;;;;;;;5028125;28;20025;-87
2021/12/16 06:22:37;;;;;;;45.92;9.20;;;;;;;;;;5029383;28;20067;-87
2021/12/16 06:27:50;;;;;;;49.03;8.93;;;;;;;;;;5029424;28;20400;-87
2021/12/16 06:30:18;;;;;;;45.35;8.70;;;;;;;;;;5027837;28;20396;-87
2021/12/16 06:32:43;;;;;;;41.60;9.45;;;;;;;;;;5012022;28;20017;-88
2021/12/16 06:35:09;;;;;;;46.25;8.95;;;;;;;;;;5032249;28;20036;-87
2021/12/16 06:37:35;;;;;;;56.42;9.65;;;;;;;;;;5031044;28;20025;-87
2021/12/16 06:40:00;;;;;;;47.85;9.00;;;;;;;;;;5031137;28;20021;-87
2021/12/16 06:42:26;;;;;;;54.85;9.98;;;;;;;;;;5032120;28;20104;-87
2021/12/16 06:44:57;;;;;;;47.75;10.55;;;;;;;;;;5027491;28;20068;-87
2021/12/16 06:47:31;;;;;;;53.37;10.27;;;;;;;;;;5010785;28;20024;-87
2021/12/16 06:49:56;;;;;;;62.10;9.85;;;;;;;;;;4996314;28;20028;-87
2021/12/16 06:52:29;;;;;;;55.08;9.65;;;;;;;;;;5029872;28;20676;-87
2021/12/16 06:55:18;;;;;;;60.28;9.30;;;;;;;;;;5030728;28;20069;-87
2021/12/16 06:57:50;;;;;;;64.75;10.32;;;;;;;;;;5028645;28;20715;-87
2021/12/16 07:00:22;;;;;;;55.70;9.43;;;;;;;;;;5011501;28;20064;-87
2021/12/16 07:02:57;;;;;;;63.80;9.98;;;;;;;;;;5011959;28;20036;-87
2021/12/16 07:05:24;;;;;;;55.78;9.93;;;;;;;;;;5029429;28;20049;-87
2021/12/16 07:07:50;;;;;;;50.67;9.20;;;;;;;;;;5029426;28;20052;-87
2021/12/16 07:10:16;;;;;;;63.00;9.27;;;;;;;;;;5011827;28;20782;-87
2021/12/16 07:12:47;;;;;;;68.35;8.80;;;;;;;;;;5029348;28;20049;-87
2021/12/16 07:15:14;;;;;;;52.67;10.27;;;;;;;;;;5029311;28;20029;-86
2021/12/16 07:17:40;;;;;;;65.05;9.00;;;;;;;;;;5029894;28;20025;-87
2021/12/16 07:20:06;;;;;;;58.97;9.43;;;;;;;;;;5011448;28;20028;-87
2021/12/16 07:22:33;;;;;;;59.08;9.27;;;;;;;;;;5011666;28;20025;-87
2021/12/16 07:24:59;;;;;;;59.33;9.70;;;;;;;;;;5029417;28;20090;-87
2021/12/16 07:27:24;;;;;;;54.58;8.73;;;;;;;;;;5029817;28;20025;-87
2021/12/16 07:29:49;;;;;;;64.93;10.00;;;;;;;;;;5030135;28;20021;-87
2021/12/16 07:32:14;;;;;;;55.97;10.65;;;;;;;;;;5030253;28;21098;-87
2021/12/16 07:34:39;;;;;;;63.50;10.23;;;;;;;;;;5029180;28;20044;-87
2021/12/16 07:37:06;;;;;;;58.53;10.63;;;;;;;;;;5010758;28;20029;-87
2021/12/16 07:39:38;;;;;;;79.45;11.70;;;;;;;;;;5011136;28;20050;-87
2021/12/16 07:42:05;;;;;;;60.60;10.35;;;;;;;;;;5011274;28;20206;-87
2021/12/16 07:44:31;;;;;;;61.10;11.63;;;;;;;;;;5027721;28;20393;-87
2021/12/16 07:47:01;;;;;;;47.28;9.93;;;;;;;;;;5028845;28;20025;-87
2021/12/16 07:49:29;;;;;;;58.60;12.30;;;;;;;;;;5029071;28;20044;-87
2021/12/16 07:51:55;;;;;;;63.60;12.73;;;;;;;;;;4994676;28;20214;-87
2021/12/16 07:54:20;;;;;;;76.93;12.50;;;;;;;;;;5010778;28;20581;-87
2021/12/16 07:56:48;;;;;;;68.88;11.30;;;;;;;;;;5029135;28;20053;-87
2021/12/16 07:59:13;;;;;;;68.95;12.07;;;;;;;;;;5028910;28;20026;-87
2021/12/16 08:01:40;;;;;;;63.33;11.60;;;;;;;;;;5029198;28;20031;-87
2021/12/16 08:04:06;;;;;;;75.82;10.43;;;;;;;;;;5010730;28;20292;-87
2021/12/16 08:06:32;;;;;;;56.45;11.90;;;;;;;;;;5010749;28;20083;-87
2021/12/16 08:09:00;;;;;;;68.55;12.90;;;;;;;;;;5028264;28;20056;-87
2021/12/16 08:11:26;;;;;;;58.30;11.55;;;;;;;;;;5010701;28;20032;-87
2021/12/16 08:13:51;;;;;;;74.95;11.25;;;;;;;;;;5028349;28;20041;-87
2021/12/16 08:16:22;;;;;;;69.45;10.65;;;;;;;;;;5028702;28;20026;-86
2021/12/16 08:18:47;;;;;;;53.38;9.13;;;;;;;;;;5028218;28;20024;-87
2021/12/16 08:21:12;;;;;;;68.63;11.53;;;;;;;;;;5028287;28;20025;-87
2021/12/16 08:23:37;;;;;;;53.22;9.90;;;;;;;;;;5028239;28;20260;-87
2021/12/16 08:26:03;;;;;;;64.15;10.13;;;;;;;;;;5010538;28;20025;-86
2021/12/16 08:28:28;;;;;;;60.97;9.80;;;;;;;;;;5010045;28;20024;-87
2021/12/16 08:30:54;;;;;;;56.25;9.77;;;;;;;;;;5027755;28;20180;-87
2021/12/16 08:33:20;;;;;;;63.45;11.82;;;;;;;;;;5028330;28;20053;-87
2021/12/16 08:35:47;;;;;;;53.70;11.18;;;;;;;;;;5010316;28;20538;-87
2021/12/16 08:38:14;;;;;;;59.35;12.73;;;;;;;;;;5027529;28;20021;-87
2021/12/16 08:40:41;;;;;;;53.03;10.48;;;;;;;;;;5027647;28;20032;-87
2021/12/16 08:43:08;;;;;;;59.30;10.05;;;;;;;;;;5027616;28;20087;-87
2021/12/16 08:45:33;;;;;;;67.90;11.38;;;;;;;;;;5028083;28;20740;-87
2021/12/16 08:47:59;;;;;;;64.78;10.82;;;;;;;;;;5009464;28;20060;-87
2021/12/16 08:50:26;;;;;;;51.67;9.82;;;;;;;;;;5027222;28;20385;-87
2021/12/16 08:52:51;;;;;;;49.72;10.13;;;;;;;;;;5009210;28;20021;-87
2021/12/16 08:55:17;;;;;;;47.03;9.32;;;;;;;;;;5009944;28;20083;-87
2021/12/16 08:57:42;;;;;;;60.03;10.50;;;;;;;;;;5008259;28;20487;-87
2021/12/16 09:00:13;;;;;;;51.15;9.70;;;;;;;;;;5009962;28;20017;-87
2021/12/16 09:02:38;;;;;;;50.10;9.80;;;;;;;;;;5026440;28;20025;-87
2021/12/16 09:05:04;;;;;;;55.70;9.43;;;;;;;;;;5010431;28;20041;-87
2021/12/16 09:07:29;;;;;;;56.40;9.48;;;;;;;;;;5026880;28;20025;-87
2021/12/16 09:09:56;;;;;;;58.45;9.88;;;;;;;;;;5027531;28;20060;-87
2021/12/16 09:12:48;;;;;;;41.53;8.55;;;;;;;;;;5009903;28;20120;-87
2021/12/16 09:15:12;;;;;;;53.60;9.80;;;;;;;;;;5027747;28;20433;-88
2021/12/16 09:17:37;;;;;;;50.55;10.68;;;;;;;;;;5027192;28;20624;-87
2021/12/16 09:20:04;;;;;;;45.95;9.38;;;;;;;;;;5009191;28;20013;-87
2021/12/16 09:22:29;;;;;;;50.17;9.85;;;;;;;;;;5028615;28;20014;-87
2021/12/16 09:24:56;;;;;;;42.25;10.10;;;;;;;;;;5009790;28;20044;-87
2021/12/16 09:27:22;;;;;;;37.28;8.55;;;;;;;;;;5028081;28;20017;-87
2021/12/16 09:29:48;;;;;;;40.35;8.85;;;;;;;;;;5026683;28;20370;-87
2021/12/16 09:32:13;;;;;;;36.63;9.23;;;;;;;;;;5027101;28;20049;-87
2021/12/16 09:34:41;;;;;;;39.60;8.95;;;;;;;;;;5009422;28;20136;-87
2021/12/16 09:37:06;;;;;;;38.88;8.88;;;;;;;;;;5009604;28;20040;-87
2021/12/16 09:39:32;;;;;;;27.75;8.65;;;;;;;;;;5009184;28;20022;-87
2021/12/16 09:41:57;;;;;;;28.52;8.40;;;;;;;;;;5027484;28;20017;-87
2021/12/16 09:44:23;;;;;;;31.35;8.30;;;;;;;;;;5028074;28;20033;-87
2021/12/16 09:46:50;;;;;;;33.45;7.78;;;;;;;;;;5010467;28;20036;-87
2021/12/16 09:49:16;;;;;;;32.28;8.15;;;;;;;;;;5027480;28;20056;-88
2021/12/16 09:51:41;;;;;;;35.42;8.52;;;;;;;;;;5026385;28;20032;-87
2021/12/16 09:54:09;;;;;;;30.00;8.18;;;;;;;;;;5027074;28;20041;-87
2021/12/16 09:56:35;;;;;;;29.88;7.53;;;;;;;;;;5027004;28;20048;-87
2021/12/16 09:59:02;;;;;;;38.00;8.13;;;;;;;;;;5009433;28;20089;-88
2021/12/16 10:01:28;;;;;;;32.72;7.85;;;;;;;;;;5009379;28;20018;-87
2021/12/16 10:03:56;;;;;;;31.70;7.45;;;;;;;;;;5011178;28;20071;-87
2021/12/16 10:06:21;;;;;;;29.60;6.25;;;;;;;;;;5027798;28;20150;-87
2021/12/16 10:08:47;;;;;;;24.67;6.50;;;;;;;;;;5010458;28;20832;-87
2021/12/16 10:11:12;;;;;;;23.70;6.78;;;;;;;;;;5009624;28;20393;-87
2021/12/16 10:13:45;;;;;;;27.83;6.90;;;;;;;;;;5011343;28;20026;-87
2021/12/16 10:18:36;;;;;;;27.83;8.30;;;;;;;;;;5020341;28;20100;-87
2021/12/16 10:21:07;;;;;;;22.60;8.27;;;;;;;;;;5031807;28;20092;-87
2021/12/16 10:23:34;;;;;;;19.33;6.60;;;;;;;;;;5014629;28;20567;-87
2021/12/16 10:26:07;;;;;;;14.73;5.00;;;;;;;;;;5013808;28;20025;-86
2021/12/16 10:28:37;;;;;;;38.05;6.32;;;;;;;;;;5031131;28;20049;-87
2021/12/16 10:31:08;;;;;;;20.98;7.30;;;;;;;;;;5030510;28;20128;-87
2021/12/16 10:33:46;;;;;;;30.55;6.93;;;;;;;;;;5012980;28;20036;-87
2021/12/16 10:36:23;;;;;;;23.58;6.53;;;;;;;;;;5030240;28;20104;-87
2021/12/16 10:39:00;;;;;;;19.58;5.95;;;;;;;;;;5012096;28;20033;-87
2021/12/16 10:41:27;;;;;;;22.85;5.97;;;;;;;;;;5012063;28;20020;-87
2021/12/16 10:44:00;;;;;;;16.50;5.20;;;;;;;;;;5012258;28;20025;-87
2021/12/16 10:46:27;;;;;;;21.55;5.85;;;;;;;;;;5011568;28;20026;-87
2021/12/16 10:48:58;;;;;;;17.35;6.32;;;;;;;;;;5029971;28;20755;-87
2021/12/16 10:51:25;;;;;;;26.23;8.27;;;;;;;;;;5030161;28;20175;-87
2021/12/16 10:53:59;;;;;;;23.50;5.50;;;;;;;;;;5029808;28;20515;-87
2021/12/16 10:56:54;;;;;;;30.58;6.15;;;;;;;;;;5028160;28;20126;-87
2021/12/16 10:59:24;;;;;;;19.95;5.55;;;;;;;;;;5012076;28;20377;-87
2021/12/16 11:01:55;;;;;;;23.60;5.93;;;;;;;;;;5029938;28;20021;-86
2021/12/16 11:04:20;;;;;;;24.23;5.93;;;;;;;;;;5012131;28;20022;-86
2021/12/16 11:06:57;;;;;;;27.00;5.72;;;;;;;;;;5030131;28;20020;-86
2021/12/16 11:09:30;;;;;;;17.35;5.68;;;;;;;;;;5030083;28;20040;-86
2021/12/16 11:12:11;;;;;;;17.95;5.18;;;;;;;;;;5030572;28;20013;-86
2021/12/16 11:14:37;;;;;;;19.45;5.20;;;;;;;;;;5030490;28;20041;-87
2021/12/16 11:17:04;;;;;;;19.58;5.10;;;;;;;;;;5011676;28;20045;-87
2021/12/16 11:19:44;;;;;;;21.08;5.90;;;;;;;;;;5027052;28;20022;-86
2021/12/16 11:22:10;;;;;;;26.25;5.88;;;;;;;;;;5011594;28;20428;-87
2021/12/16 11:24:35;;;;;;;22.23;5.25;;;;;;;;;;5029513;28;20091;-87
2021/12/16 11:27:18;;;;;;;19.17;6.00;;;;;;;;;;5029731;28;20025;-87
2021/12/16 11:29:43;;;;;;;19.52;5.63;;;;;;;;;;5011356;28;20029;-87
2021/12/16 11:32:11;;;;;;;14.70;5.60;;;;;;;;;;5011372;28;20473;-87
2021/12/16 11:34:36;;;;;;;21.17;6.32;;;;;;;;;;5030626;28;20260;-87
2021/12/16 11:37:02;;;;;;;24.20;5.67;;;;;;;;;;5029275;28;20027;-87
2021/12/16 11:39:29;;;;;;;26.02;7.28;;;;;;;;;;5028104;28;20355;-87
2021/12/16 11:42:03;;;;;;;21.27;6.55;;;;;;;;;;5027909;28;20384;-87
2021/12/16 11:44:32;;;;;;;17.35;6.53;;;;;;;;;;5029611;28;20035;-87
2021/12/16 11:47:03;;;;;;;18.00;5.97;;;;;;;;;;5011760;28;20110;-87
2021/12/16 11:49:31;;;;;;;30.63;7.57;;;;;;;;;;5029477;28;20104;-87
2021/12/16 11:51:59;;;;;;;19.55;5.68;;;;;;;;;;5029303;28;20444;-87
2021/12/16 11:54:27;;;;;;;18.10;6.38;;;;;;;;;;5012376;28;20136;-87
2021/12/16 11:56:57;;;;;;;19.42;6.78;;;;;;;;;;5011569;28;20028;-87
2021/12/16 11:59:24;;;;;;;15.93;5.25;;;;;;;;;;5029087;28;20384;-87
2021/12/16 12:01:50;;;;;;;19.60;6.07;;;;;;;;;;5027118;28;20033;-87
2021/12/16 12:04:15;;;;;;;22.50;6.40;;;;;;;;;;5028758;28;20091;-87
2021/12/16 12:06:42;;;;;;;19.02;6.15;;;;;;;;;;5029376;28;20032;-87
2021/12/16 12:09:08;;;;;;;27.90;7.53;;;;;;;;;;5010105;28;20052;-87
2021/12/16 12:11:35;;;;;;;14.90;6.53;;;;;;;;;;5010315;28;20029;-87
2021/12/16 12:14:02;;;;;;;23.42;7.25;;;;;;;;;;5010281;28;20021;-86
2021/12/16 12:16:35;;;;;;;16.35;6.40;;;;;;;;;;5028927;28;20492;-85
2021/12/16 12:19:11;;;;;;;25.33;7.72;;;;;;;;;;5028795;28;20107;-86
2021/12/16 12:21:36;;;;;;;19.98;7.22;;;;;;;;;;5028386;28;20028;-86
2021/12/16 12:24:18;;;;;;;21.65;7.60;;;;;;;;;;5027288;28;20025;-87
2021/12/16 12:26:45;;;;;;;36.25;8.45;;;;;;;;;;5011097;28;20022;-86
2021/12/16 12:29:23;;;;;;;30.52;7.93;;;;;;;;;;5027548;28;20483;-87
2021/12/16 12:31:51;;;;;;;26.45;7.78;;;;;;;;;;5011108;28;20029;-86
2021/12/16 12:34:16;;;;;;;25.55;8.45;;;;;;;;;;5010303;28;20021;-86
2021/12/16 12:36:42;;;;;;;23.38;7.90;;;;;;;;;;5028383;28;20013;-86
2021/12/16 12:39:08;;;;;;;32.40;9.32;;;;;;;;;;5028140;28;20032;-86
2021/12/16 12:41:34;;;;;;;32.25;8.25;;;;;;;;;;5028952;28;20040;-86
2021/12/16 12:44:01;;;;;;;24.52;7.88;;;;;;;;;;5006522;28;20014;-86
2021/12/16 12:46:26;;;;;;;44.78;10.50;;;;;;;;;;4998744;28;20481;-85
2021/12/16 12:48:53;;;;;;;38.25;9.40;;;;;;;;;;5027914;28;20028;-86
2021/12/16 12:51:29;;;;;;;27.85;9.73;;;;;;;;;;5026972;28;20029;-86
2021/12/16 12:53:54;;;;;;;25.88;8.93;;;;;;;;;;4994282;28;20128;-86
2021/12/16 12:56:21;;;;;;;43.97;11.70;;;;;;;;;;5028035;28;20588;-86
2021/12/16 12:58:51;;;;;;;31.05;9.27;;;;;;;;;;5027861;28;20605;-86
2021/12/16 13:01:17;;;;;;;31.77;9.40;;;;;;;;;;5010325;28;20049;-86
2021/12/16 13:03:42;;;;;;;27.10;9.18;;;;;;;;;;5010529;28;20515;-86
2021/12/16 13:06:13;;;;;;;29.05;9.90;;;;;;;;;;5028101;28;20496;-86
2021/12/16 13:08:40;;;;;;;38.25;10.00;;;;;;;;;;5027806;28;20037;-86
2021/12/16 13:11:13;;;;;;;44.63;12.18;;;;;;;;;;5028207;28;20171;-86
2021/12/16 13:14:22;;;;;;;28.48;10.13;;;;;;;;;;5027541;28;20531;-86
2021/12/16 13:25:34;;;;;;;33.83;9.30;;;;;;;;;;5008620;28;20084;-86
2021/12/16 13:27:48;;;;;;;26.95;9.43;;;;;;;;;;5010765;28;20073;-87
2021/12/16 13:30:21;;;;;;;33.70;8.27;;;;;;;;;;5027994;28;20397;-86
2021/12/16 13:33:25;;;;;;;35.55;8.30;;;;;;;;;;5027539;28;20049;-86
2021/12/16 13:36:00;;;;;;;39.33;8.57;;;;;;;;;;4966455;28;20018;-86
2021/12/16 13:38:35;;;;;;;31.27;6.93;;;;;;;;;;5015460;28;20442;-86
2021/12/16 13:41:05;;;;;;;34.33;6.55;;;;;;;;;;5021489;28;20056;-86
2021/12/16 13:43:31;;;;;;;33.83;7.38;;;;;;;;;;5029103;28;20038;-86
2021/12/16 13:46:19;;;;;;;31.67;6.35;;;;;;;;;;5031784;28;20088;-86
2021/12/16 13:58:05;;;;;;;37.10;6.75;;;;;;;;;;5031374;28;20029;-85
2021/12/16 14:06:21;;;;;;;40.40;6.80;;;;;;;;;;5030872;28;20045;-86
2021/12/16 14:08:43;;;;;;;40.50;6.38;;;;;;;;;;5029053;28;20040;-86
2021/12/16 14:12:03;;;;;;;38.40;6.78;;;;;;;;;;5013020;28;20040;-86
2021/12/16 14:14:54;;;;;;;46.45;6.57;;;;;;;;;;5028754;28;20041;-86
2021/12/16 14:18:04;;;;;;;39.05;8.93;;;;;;;;;;5029794;28;20057;-86
2021/12/16 14:23:39;;;;;;;34.15;7.03;;;;;;;;;;5030933;28;20906;-86
2021/12/16 14:40:05;;;;;;;39.92;8.00;;;;;;;;;;5030684;28;20733;-87
2021/12/16 14:42:49;;;;;;;42.15;8.48;;;;;;;;;;5029475;28;20041;-86
2021/12/16 14:50:34;;;;;;;51.92;7.45;;;;;;;;;;5030691;28;20493;-86
2021/12/16 14:53:09;;;;;;;55.40;9.60;;;;;;;;;;5029636;28;20112;-86
2021/12/16 14:55:34;;;;;;;42.47;8.68;;;;;;;;;;5028910;28;20021;-86
2021/12/16 14:58:00;;;;;;;56.85;10.18;;;;;;;;;;5012704;28;20029;-87
2021/12/16 15:00:30;;;;;;;46.15;8.88;;;;;;;;;;5030552;28;20028;-87
2021/12/16 15:03:19;;;;;;;44.13;8.60;;;;;;;;;;5012862;28;20030;-86
2021/12/16 15:05:48;;;;;;;56.53;9.82;;;;;;;;;;4990665;28;20072;-87
2021/12/16 15:08:16;;;;;;;54.28;9.68;;;;;;;;;;5010589;28;20022;-86
2021/12/16 15:10:42;;;;;;;47.08;9.25;;;;;;;;;;5011861;28;20044;-86
2021/12/16 15:13:15;;;;;;;39.58;9.25;;;;;;;;;;5013107;28;20024;-86
2021/12/16 15:15:53;;;;;;;43.65;10.75;;;;;;;;;;5029923;28;20193;-87
2021/12/16 15:40:28;;;;;;;33.50;9.77;;;;;;;;;;5030332;28;20083;-86
2021/12/16 15:42:57;;;;;;;32.50;9.27;;;;;;;;;;5030264;28;20099;-86
2021/12/16 15:45:24;;;;;;;31.23;9.63;;;;;;;;;;5008792;28;20041;-86
2021/12/16 15:47:52;;;;;;;41.40;11.07;;;;;;;;;;5013066;28;20028;-86
2021/12/16 15:50:21;;;;;;;39.28;11.13;;;;;;;;;;5030049;28;20029;-86
2021/12/16 15:52:49;;;;;;;24.48;9.35;;;;;;;;;;5030081;28;20100;-86
2021/12/16 15:55:31;;;;;;;30.27;9.95;;;;;;;;;;5029841;28;20489;-86
2021/12/16 15:58:06;;;;;;;27.13;9.10;;;;;;;;;;5011358;28;20018;-86
2021/12/16 16:00:32;;;;;;;23.42;9.55;;;;;;;;;;5029485;28;20022;-86
2021/12/16 16:02:58;;;;;;;32.67;9.48;;;;;;;;;;5011099;28;20022;-86
2021/12/16 16:05:29;;;;;;;31.60;11.23;;;;;;;;;;5010960;28;20030;-86
2021/12/16 16:07:58;;;;;;;32.87;9.93;;;;;;;;;;4995099;28;20025;-86
2021/12/16 16:10:24;;;;;;;30.10;9.68;;;;;;;;;;5029085;28;20025;-86
2021/12/16 16:12:49;;;;;;;25.52;8.95;;;;;;;;;;5027194;28;20032;-86
2021/12/16 16:15:16;;;;;;;38.85;10.35;;;;;;;;;;5029516;28;20060;-86
2021/12/16 16:17:59;;;;;;;24.00;8.43;;;;;;;;;;5010771;28;20171;-86
2021/12/16 16:20:29;;;;;;;28.33;7.85;;;;;;;;;;5011554;28;20025;-86
2021/12/16 16:22:54;;;;;;;27.98;8.27;;;;;;;;;;5011286;28;20021;-86
2021/12/16 16:25:20;;;;;;;27.65;9.35;;;;;;;;;;5011185;28;20033;-87
2021/12/16 16:27:45;;;;;;;20.27;8.32;;;;;;;;;;5029866;28;20523;-87
2021/12/16 16:30:11;;;;;;;21.75;8.68;;;;;;;;;;5030903;28;20722;-86
2021/12/16 16:32:55;;;;;;;21.88;8.70;;;;;;;;;;5045915;28;20105;-87
2021/12/16 16:35:20;;;;;;;25.75;8.25;;;;;;;;;;5031485;28;20741;-86
2021/12/16 16:37:45;;;;;;;22.33;8.90;;;;;;;;;;5030658;28;20022;-86
2021/12/16 16:40:11;;;;;;;28.40;9.23;;;;;;;;;;5029174;28;20155;-86
2021/12/16 16:42:38;;;;;;;24.50;9.60;;;;;;;;;;5045901;28;20029;-86
2021/12/16 16:45:04;;;;;;;25.75;10.13;;;;;;;;;;5028985;28;20034;-87
2021/12/16 16:47:39;;;;;;;24.13;9.75;;;;;;;;;;5028956;28;20033;-86
2021/12/16 16:50:06;;;;;;;26.15;10.80;;;;;;;;;;5030715;28;20465;-87
2021/12/16 16:52:40;;;;;;;32.58;11.10;;;;;;;;;;5045707;28;20025;-86
2021/12/16 16:55:05;;;;;;;20.98;9.07;;;;;;;;;;5028877;28;20056;-86
2021/12/16 16:57:31;;;;;;;22.10;9.63;;;;;;;;;;5045535;28;20048;-86
2021/12/16 16:59:58;;;;;;;26.20;8.55;;;;;;;;;;5029196;28;20032;-87
2021/12/16 17:02:28;;;;;;;21.80;8.30;;;;;;;;;;5028842;28;20091;-86
2021/12/16 17:05:11;;;;;;;21.80;8.75;;;;;;;;;;5028866;28;20046;-86
2021/12/16 17:07:38;;;;;;;21.40;9.23;;;;;;;;;;5029040;28;20034;-86
2021/12/16 17:10:04;;;;;;;17.80;8.98;;;;;;;;;;5028451;28;20396;-87
2021/12/16 17:12:35;;;;;;;23.55;10.35;;;;;;;;;;5030780;28;20033;-86
2021/12/16 17:15:10;;;;;;;24.07;8.80;;;;;;;;;;5028895;28;20032;-86
2021/12/16 17:17:41;;;;;;;20.05;8.77;;;;;;;;;;5028194;28;20112;-86
2021/12/16 17:20:11;;;;;;;21.77;8.23;;;;;;;;;;5028687;28;20112;-87
2021/12/16 17:22:44;;;;;;;35.28;10.07;;;;;;;;;;5030263;28;20112;-86
2021/12/16 17:25:10;;;;;;;35.28;10.25;;;;;;;;;;5045369;28;20153;-86
2021/12/16 17:27:38;;;;;;;32.58;9.60;;;;;;;;;;5028805;28;20045;-86
2021/12/16 17:30:10;;;;;;;32.50;9.85;;;;;;;;;;5030138;28;20021;-86
2021/12/16 17:32:40;;;;;;;58.35;9.30;;;;;;;;;;5029009;28;20029;-86
2021/12/16 17:35:09;;;;;;;55.17;9.10;;;;;;;;;;5030063;28;20481;-87
2021/12/16 17:37:38;;;;;;;36.53;8.68;;;;;;;;;;5030037;28;20033;-86
2021/12/16 17:40:09;;;;;;;38.53;8.38;;;;;;;;;;5030283;28;20060;-87
2021/12/16 17:42:34;;;;;;;23.58;8.18;;;;;;;;;;5029976;28;20038;-86
2021/12/16 17:45:04;;;;;;;22.42;9.13;;;;;;;;;;5029896;28;20064;-86
2021/12/16 17:47:32;;;;;;;39.88;10.88;;;;;;;;;;5029985;28;20017;-86
2021/12/16 17:49:58;;;;;;;28.17;9.15;;;;;;;;;;5028258;28;20032;-86
2021/12/16 17:52:25;;;;;;;43.60;11.27;;;;;;;;;;5031270;28;20469;-87
2021/12/16 17:54:52;;;;;;;32.80;11.10;;;;;;;;;;5047447;28;20061;-86
2021/12/16 17:57:22;;;;;;;88.25;16.38;;;;;;;;;;5050231;28;20043;-86
2021/12/16 17:59:47;;;;;;;63.10;11.40;;;;;;;;;;5031766;28;20036;-86
2021/12/16 18:02:16;;;;;;;89.78;12.63;;;;;;;;;;5049919;28;20025;-86